createdAt,value
2022-12-12T00:03:56.536Z,40.55
2022-12-12T00:07:58.091Z,32.80
2022-12-12T00:11:59.518Z,32.25
2022-12-12T00:16:01.343Z,34.03
2022-12-12T00:20:03.992Z,32.67
2022-12-12T00:24:05.819Z,34.00
2022-12-12T00:28:07.215Z,38.33
2022-12-12T00:32:08.634Z,37.47
2022-12-12T00:36:10.593Z,35.50
2022-12-12T00:40:12.555Z,36.63
2022-12-12T00:44:13.963Z,34.78
2022-12-12T00:48:15.388Z,37.80
2022-12-12T00:52:16.832Z,36.97
2022-12-12T00:56:19.844Z,31.27
2022-12-12T01:00:22.305Z,32.80
2022-12-12T01:04:23.733Z,32.38
2022-12-12T01:08:25.257Z,31.50
2022-12-12T01:12:26.852Z,33.17
2022-12-12T01:16:29.448Z,31.42
2022-12-12T01:20:30.994Z,25.77
2022-12-12T01:24:32.529Z,30.52
2022-12-12T01:28:34.496Z,31.13
2022-12-12T01:32:35.993Z,32.78
2022-12-12T01:36:37.547Z,27.60
2022-12-12T01:40:39.382Z,33.80
2022-12-12T01:44:49.249Z,29.08
2022-12-12T01:48:56.933Z,29.67
2022-12-12T01:52:58.396Z,29.90
2022-12-12T01:57:04.142Z,24.52
2022-12-12T02:01:05.584Z,26.77
2022-12-12T02:05:17.382Z,26.98
2022-12-12T02:09:20.220Z,28.23
2022-12-12T02:13:26.697Z,24.13
2022-12-12T02:17:46.552Z,31.10
2022-12-12T02:21:55.094Z,29.15
2022-12-12T02:26:13.087Z,27.27
2022-12-12T02:30:22.206Z,28.77
2022-12-12T02:34:49.733Z,30.20
2022-12-12T02:39:08.562Z,28.40
2022-12-12T02:43:14.127Z,26.50
2022-12-12T02:47:19.292Z,30.63
2022-12-12T02:51:21.341Z,32.97
2022-12-12T02:55:22.749Z,25.10
2022-12-12T02:59:27.567Z,25.83
2022-12-12T03:03:54.212Z,30.45
2022-12-12T03:08:47.068Z,27.08
2022-12-12T03:13:00.870Z,33.28
2022-12-12T03:17:11.461Z,30.30
2022-12-12T03:21:22.193Z,31.33
2022-12-12T03:25:34.692Z,26.38
2022-12-12T03:29:46.944Z,31.88
2022-12-12T03:34:01.572Z,33.10
2022-12-12T03:38:22.060Z,26.10
2022-12-12T03:42:42.362Z,28.75
2022-12-12T03:47:01.622Z,34.42
2022-12-12T03:51:27.932Z,29.60
2022-12-12T03:55:54.134Z,41.42
2022-12-12T04:00:00.294Z,36.27
2022-12-12T04:04:41.652Z,32.35
2022-12-12T04:09:03.342Z,37.17
2022-12-12T04:13:07.662Z,35.63
2022-12-12T04:17:11.737Z,32.67
2022-12-12T04:21:57.224Z,33.03
2022-12-12T04:26:21.734Z,34.80
2022-12-12T04:30:23.228Z,37.63
2022-12-12T04:34:44.159Z,36.67
2022-12-12T04:38:46.465Z,30.90
2022-12-12T04:42:54.998Z,32.47
2022-12-12T04:46:57.429Z,32.70
2022-12-12T04:51:01.021Z,32.85
2022-12-12T04:55:10.185Z,28.77
2022-12-12T04:59:12.615Z,30.95
2022-12-12T05:03:29.459Z,30.55
2022-12-12T05:07:40.003Z,31.42
2022-12-12T05:11:42.399Z,29.98
2022-12-12T05:15:45.144Z,30.13
2022-12-12T05:19:46.606Z,38.15
2022-12-12T05:23:48.018Z,34.75
2022-12-12T05:27:49.588Z,33.15
2022-12-12T05:31:51.175Z,34.80
2022-12-12T05:35:52.601Z,37.95
2022-12-12T05:39:53.985Z,37.70
2022-12-12T05:43:55.436Z,34.53
2022-12-12T05:47:57.851Z,33.50
2022-12-12T05:51:59.282Z,32.13
2022-12-12T05:56:00.753Z,37.15
2022-12-12T06:00:02.484Z,31.45
2022-12-12T06:04:04.084Z,30.88
2022-12-12T06:08:05.832Z,31.55
2022-12-12T06:12:07.495Z,33.25
2022-12-12T06:16:10.812Z,32.25
2022-12-12T06:20:12.244Z,33.75
2022-12-12T06:24:13.713Z,33.97
2022-12-12T06:28:15.112Z,33.88
2022-12-12T06:32:16.560Z,34.75
2022-12-12T06:36:24.296Z,32.95
2022-12-12T06:40:25.809Z,35.47
2022-12-12T06:44:27.306Z,36.22
2022-12-12T06:48:29.919Z,30.90
2022-12-12T06:52:31.346Z,38.30
2022-12-12T06:56:32.749Z,37.00
2022-12-12T07:00:34.535Z,33.45
2022-12-12T07:04:35.957Z,41.55
2022-12-12T07:08:38.119Z,35.50
2022-12-12T07:12:39.635Z,37.58
2022-12-12T07:16:41.046Z,31.92
2022-12-12T07:20:43.926Z,38.42
2022-12-12T07:24:45.330Z,37.63
2022-12-12T07:28:47.195Z,36.30
2022-12-12T07:32:48.615Z,35.05
2022-12-12T07:36:50.070Z,32.60
2022-12-12T07:40:51.579Z,34.03
2022-12-12T07:44:53.024Z,32.40
2022-12-12T07:48:54.601Z,36.08
2022-12-12T07:52:55.927Z,34.67
2022-12-12T07:56:59.300Z,33.83
2022-12-12T08:01:00.665Z,33.10
2022-12-12T08:05:02.091Z,33.22
2022-12-12T08:09:03.639Z,33.03
2022-12-12T08:13:05.089Z,33.13
2022-12-12T08:17:06.480Z,36.50
2022-12-12T08:21:09.544Z,30.80
2022-12-12T08:25:11.224Z,33.72
2022-12-12T08:29:12.965Z,34.35
2022-12-12T08:33:14.347Z,34.97
2022-12-12T08:37:15.718Z,32.58
2022-12-12T08:41:17.486Z,33.90
2022-12-12T08:45:18.860Z,35.08
2022-12-12T08:49:20.389Z,33.17
2022-12-12T08:53:21.841Z,33.25
2022-12-12T08:57:26.065Z,37.13
2022-12-12T09:01:28.204Z,49.03
2022-12-12T09:05:29.626Z,43.97
2022-12-12T09:09:31.222Z,36.80
2022-12-12T09:13:33.220Z,34.53
2022-12-12T09:17:34.606Z,37.13
2022-12-12T09:21:36.030Z,31.60
2022-12-12T09:25:41.336Z,36.00
2022-12-12T09:29:44.055Z,34.15
2022-12-12T09:33:45.528Z,32.33
2022-12-12T09:37:46.954Z,38.33
2022-12-12T09:41:48.614Z,26.58
2022-12-12T09:45:50.290Z,34.17
2022-12-12T09:49:54.349Z,32.30
2022-12-12T09:53:55.760Z,32.65
2022-12-12T09:58:03.204Z,33.70
2022-12-12T10:02:34.735Z,32.90
2022-12-12T10:06:45.498Z,33.90
2022-12-12T10:10:54.485Z,28.38
2022-12-12T10:15:02.722Z,32.50
2022-12-12T10:19:10.718Z,31.65
2022-12-12T10:23:36.350Z,31.23
2022-12-12T10:27:37.828Z,31.95
2022-12-12T10:31:46.493Z,28.48
2022-12-12T10:35:58.028Z,31.30
2022-12-12T10:40:32.268Z,30.85
2022-12-12T10:44:48.692Z,29.95
2022-12-12T10:48:51.124Z,30.90
2022-12-12T10:52:52.938Z,33.75
2022-12-12T10:57:20.859Z,30.50
2022-12-12T11:02:00.269Z,26.90
2022-12-12T11:05:52.916Z,28.90
2022-12-12T11:09:58.960Z,30.45
2022-12-12T11:14:05.853Z,27.50
2022-12-12T11:18:14.753Z,34.17
2022-12-12T11:22:16.241Z,26.88
2022-12-12T11:26:19.163Z,24.88
2022-12-12T11:30:24.756Z,20.73
2022-12-12T11:34:27.823Z,24.13
2022-12-12T11:38:38.321Z,24.20
2022-12-12T11:42:40.060Z,24.77
2022-12-12T11:46:41.450Z,24.92
2022-12-12T11:50:46.451Z,22.95
2022-12-12T11:54:48.201Z,22.15
2022-12-12T11:59:12.552Z,25.17
2022-12-12T12:03:31.804Z,21.85
2022-12-12T12:08:01.902Z,17.13
2022-12-12T12:12:15.988Z,19.77
2022-12-12T12:16:23.664Z,17.52
2022-12-12T12:20:39.643Z,15.02
2022-12-12T12:25:01.674Z,20.55
2022-12-12T12:29:15.836Z,16.48
2022-12-12T12:33:26.214Z,14.75
2022-12-12T12:37:57.067Z,11.98
2022-12-12T12:42:01.370Z,12.75
2022-12-12T12:46:11.821Z,11.18
2022-12-12T12:50:19.109Z,13.48
2022-12-12T12:54:28.503Z,10.88
2022-12-12T12:58:38.363Z,12.57
2022-12-12T13:03:10.828Z,10.98
2022-12-12T13:07:41.373Z,13.60
2022-12-12T13:11:45.824Z,11.63
2022-12-12T13:15:50.572Z,11.68
2022-12-12T13:19:53.769Z,6.43
2022-12-12T13:24:12.794Z,6.55
2022-12-12T13:28:21.577Z,6.85
2022-12-12T13:32:39.464Z,7.82
2022-12-12T13:36:44.255Z,7.53
2022-12-12T13:40:55.826Z,9.60
2022-12-12T13:45:32.474Z,10.02
2022-12-12T13:49:46.176Z,9.15
2022-12-12T13:53:47.532Z,10.38
2022-12-12T13:58:02.130Z,10.60
2022-12-12T14:02:23.123Z,9.65
2022-12-12T14:06:28.155Z,8.23
2022-12-12T14:10:39.974Z,13.57
2022-12-12T14:14:42.558Z,9.82
2022-12-12T14:18:50.002Z,9.60
2022-12-12T14:26:52.736Z,15.63
2022-12-12T14:30:57.245Z,17.35
2022-12-12T14:35:07.241Z,12.63
2022-12-12T14:39:17.599Z,15.05
2022-12-12T14:43:27.478Z,14.07
2022-12-12T14:47:28.895Z,16.13
2022-12-12T14:51:33.988Z,11.48
2022-12-12T14:55:35.449Z,13.57
2022-12-12T14:59:41.033Z,14.57
2022-12-12T15:03:48.305Z,15.20
2022-12-12T15:07:58.232Z,15.50
2022-12-12T15:12:21.251Z,18.42
2022-12-12T15:16:44.184Z,18.95
2022-12-12T15:20:49.030Z,16.37
2022-12-12T15:24:51.355Z,14.70
2022-12-12T15:28:53.401Z,18.08
2022-12-12T15:32:54.963Z,17.27
2022-12-12T15:36:56.419Z,17.80
2022-12-12T15:40:59.438Z,18.50
2022-12-12T15:45:01.064Z,20.83
2022-12-12T15:49:02.469Z,18.17
2022-12-12T15:53:24.659Z,18.20
2022-12-12T15:57:29.103Z,24.85
2022-12-12T16:01:30.883Z,18.10
2022-12-12T16:05:37.094Z,23.55
2022-12-12T16:09:38.659Z,17.00
2022-12-12T16:13:41.803Z,21.45
2022-12-12T16:17:57.937Z,21.48
2022-12-12T16:22:04.594Z,21.30
2022-12-12T16:26:06.263Z,25.07
2022-12-12T16:30:07.880Z,23.75
2022-12-12T16:34:09.272Z,24.13
2022-12-12T16:38:16.222Z,27.42
2022-12-12T16:42:19.455Z,21.08
2022-12-12T16:46:23.247Z,21.23
2022-12-12T16:50:25.828Z,25.58
2022-12-12T16:54:27.621Z,26.85
2022-12-12T16:58:29.255Z,22.92
2022-12-12T17:02:30.774Z,22.27
2022-12-12T17:06:32.478Z,23.17
2022-12-12T17:10:34.714Z,22.77
2022-12-12T17:14:37.469Z,22.25
2022-12-12T17:18:39.398Z,22.83
2022-12-12T17:22:41.461Z,21.10
2022-12-12T17:26:42.907Z,22.42
2022-12-12T17:30:45.375Z,29.17
2022-12-12T17:34:46.772Z,22.92
2022-12-12T17:38:48.375Z,23.67
2022-12-12T17:42:50.300Z,23.15
2022-12-12T17:46:53.236Z,25.17
2022-12-12T17:51:02.101Z,26.88
2022-12-12T17:55:53.270Z,23.38
2022-12-12T17:59:25.232Z,23.88
2022-12-12T18:03:26.795Z,20.90
2022-12-12T18:07:28.220Z,22.33
2022-12-12T18:11:32.223Z,22.48
2022-12-12T18:15:33.731Z,30.45
2022-12-12T18:19:35.097Z,32.60
2022-12-12T18:23:36.870Z,33.58
2022-12-12T18:27:40.131Z,25.35
2022-12-12T18:31:41.599Z,28.50
2022-12-12T18:35:43.609Z,25.70
2022-12-12T18:39:44.970Z,29.45
2022-12-12T18:43:46.380Z,34.97
2022-12-12T18:47:47.749Z,27.30
2022-12-12T18:51:49.346Z,31.13
2022-12-12T18:55:51.143Z,27.58
2022-12-12T18:59:52.518Z,24.85
2022-12-12T19:03:58.544Z,25.55
2022-12-12T19:08:00.001Z,34.25
2022-12-12T19:12:02.452Z,35.15
2022-12-12T19:16:10.726Z,31.50
2022-12-12T19:20:13.049Z,30.95
2022-12-12T19:24:14.693Z,26.85
2022-12-12T19:28:16.065Z,27.88
2022-12-12T19:32:17.509Z,30.40
2022-12-12T19:36:28.632Z,30.05
2022-12-12T19:40:30.035Z,29.23
2022-12-12T19:44:31.494Z,27.75
2022-12-12T19:48:33.374Z,31.30
2022-12-12T19:52:34.733Z,29.98
2022-12-12T19:56:37.501Z,26.83
2022-12-12T20:00:38.915Z,32.53
2022-12-12T20:04:41.535Z,29.80
2022-12-12T20:08:43.131Z,28.13
2022-12-12T20:12:56.116Z,27.58
2022-12-12T20:17:02.314Z,33.40
2022-12-12T20:21:04.743Z,26.35
2022-12-12T20:25:06.645Z,28.13
2022-12-12T20:29:09.055Z,30.63
2022-12-12T20:33:10.464Z,30.08
2022-12-12T20:37:15.346Z,31.33
2022-12-12T20:41:23.379Z,33.00
2022-12-12T20:45:24.697Z,28.98
2022-12-12T20:49:28.685Z,30.13
2022-12-12T20:53:34.909Z,28.92
2022-12-12T20:57:37.958Z,31.40
2022-12-12T21:01:39.393Z,33.50
2022-12-12T21:05:40.835Z,29.25
2022-12-12T21:09:42.271Z,29.25
2022-12-12T21:13:43.852Z,31.02
2022-12-12T21:17:45.536Z,31.30
2022-12-12T21:21:47.045Z,47.92
2022-12-12T21:25:48.501Z,45.83
2022-12-12T21:29:49.857Z,34.08
2022-12-12T21:33:51.219Z,33.97
2022-12-12T21:37:52.617Z,35.90
2022-12-12T21:41:54.995Z,51.40
2022-12-12T21:45:56.509Z,33.13
2022-12-12T21:49:57.906Z,35.28
2022-12-12T21:53:59.311Z,34.38
2022-12-12T21:58:00.646Z,34.90
2022-12-12T22:02:02.046Z,34.75
2022-12-12T22:06:15.175Z,31.40
2022-12-12T22:10:16.627Z,33.22
2022-12-12T22:14:19.166Z,36.22
2022-12-12T22:18:20.603Z,34.58
2022-12-12T22:22:22.503Z,33.25
2022-12-12T22:26:26.097Z,86.00
2022-12-12T22:30:27.431Z,37.75
2022-12-12T22:34:28.800Z,33.38
2022-12-12T22:38:33.404Z,38.38
2022-12-12T22:42:37.926Z,34.42
2022-12-12T22:46:43.870Z,29.42
2022-12-12T22:50:45.918Z,29.67
2022-12-12T22:54:47.305Z,30.50
2022-12-12T22:58:48.671Z,27.67
2022-12-12T23:02:50.132Z,37.15
2022-12-12T23:06:51.524Z,32.47
2022-12-12T23:10:52.940Z,25.88
2022-12-12T23:14:54.860Z,29.25
2022-12-12T23:18:56.931Z,31.52
2022-12-12T23:22:58.430Z,27.83
2022-12-12T23:26:59.850Z,32.03
2022-12-12T23:31:01.780Z,32.17
2022-12-12T23:35:03.206Z,33.00
2022-12-12T23:39:07.510Z,28.85
2022-12-12T23:43:09.177Z,30.90
2022-12-12T23:47:10.581Z,37.08
2022-12-12T23:51:12.020Z,30.35
2022-12-12T23:55:13.493Z,30.67
2022-12-12T23:59:18.294Z,30.95
